首页
METAR-TAF:

METAR-TAF

机场 :

吉布提-安布利国际机场

吉布地, 吉布提

纬度: 11-33N, 经度: 043-10E, 海拔: 49米

当前天气观测

该预报发布于1小时和18分钟前的01:00 UTC
风速4节,风向
温度 35°C
湿度 50%
气压 1002 hPa
能見度: 7000
天空无云

METAR: HDAM 230100Z 10004KT 7000 HZ SKC 35/23 Q1002

时间: 05:18 (02:18 UTC)

预报

该预报发布于3小时和18分钟前的23:00 UTC
预报有效从23日的 00点(UTC)到 23日的 24点(UTC)
风速16节,风向西
能見度: 6000
霾, 浮尘
成为
从 23日的 06点(UTC)到 23日的 12点(UTC)
风速15节,风向西,有时为20节阵风
能見度: 3000
扬沙, 高吹尘
成为
从 23日的 12点(UTC)到 23日的 15点(UTC)
风速10节,风向
能見度: 8000
成为
从 23日的 15点(UTC)到 23日的 18点(UTC)
风速3节,风向多变

TAF: HDAM 222300Z 2300/2324 28016KT 6000 HZ DU NSC BECMG 2306/2312 28015G20KT 3000 SA BLDU BECMG 2312/2315 08010KT 8000 HZ BECMG 2315/2318 VRB03KT

超过4000个机场的气象观测和天气预报(METAR&TAF报告)。

可查询的气象台以黄色和红色小点在地图上表示。

将鼠标移到小点上方,可查看气象台名称。

然后点击查看天气观测和预报。

如需切换地图:点击带黑十字的绿色按钮放大地图;点击带横线的绿色按钮缩小地图;或者点击绿色箭头查看邻近地区的地图。


METAR-TAF: